sensor_id;sensor_type;location;lat;lon;timestamp;temperature;humidity
24226;DHT22;51462;51.422;5.514;2023-04-15T00:00:12;8.90;99.90
24226;DHT22;51462;51.422;5.514;2023-04-15T00:02:37;8.80;99.90
24226;DHT22;51462;51.422;5.514;2023-04-15T00:05:04;8.90;99.90
24226;DHT22;51462;51.422;5.514;2023-04-15T00:07:30;9.00;99.90
24226;DHT22;51462;51.422;5.514;2023-04-15T00:09:56;8.80;99.90
24226;DHT22;51462;51.422;5.514;2023-04-15T00:12:27;8.70;99.90
24226;DHT22;51462;51.422;5.514;2023-04-15T00:14:53;8.70;99.90
24226;DHT22;51462;51.422;5.514;2023-04-15T00:17:19;8.80;99.90
24226;DHT22;51462;51.422;5.514;2023-04-15T00:19:44;8.70;99.90
24226;DHT22;51462;51.422;5.514;2023-04-15T00:22:11;8.70;99.90
24226;DHT22;51462;51.422;5.514;2023-04-15T00:24:37;8.60;99.90
24226;DHT22;51462;51.422;5.514;2023-04-15T00:27:03;8.60;99.90
24226;DHT22;51462;51.422;5.514;2023-04-15T00:29:29;8.60;99.90
24226;DHT22;51462;51.422;5.514;2023-04-15T00:31:55;8.50;99.90
24226;DHT22;51462;51.422;5.514;2023-04-15T00:34:21;8.60;99.90
24226;DHT22;51462;51.422;5.514;2023-04-15T00:36:47;8.80;99.90
24226;DHT22;51462;51.422;5.514;2023-04-15T00:39:13;8.80;99.90
24226;DHT22;51462;51.422;5.514;2023-04-15T00:41:39;8.60;99.90
24226;DHT22;51462;51.422;5.514;2023-04-15T00:44:05;8.50;99.90
24226;DHT22;51462;51.422;5.514;2023-04-15T00:46:33;8.60;99.90
24226;DHT22;51462;51.422;5.514;2023-04-15T00:48:59;8.60;99.90
24226;DHT22;51462;51.422;5.514;2023-04-15T00:51:25;8.50;99.90
24226;DHT22;51462;51.422;5.514;2023-04-15T00:53:51;8.40;99.90
24226;DHT22;51462;51.422;5.514;2023-04-15T00:56:19;8.20;99.90
24226;DHT22;51462;51.422;5.514;2023-04-15T00:58:45;8.20;99.90
24226;DHT22;51462;51.422;5.514;2023-04-15T01:01:10;8.20;99.90
24226;DHT22;51462;51.422;5.514;2023-04-15T01:03:36;8.20;99.90
24226;DHT22;51462;51.422;5.514;2023-04-15T01:06:02;8.10;99.90
24226;DHT22;51462;51.422;5.514;2023-04-15T01:08:28;8.10;99.90
24226;DHT22;51462;51.422;5.514;2023-04-15T01:10:55;8.00;99.90
24226;DHT22;51462;51.422;5.514;2023-04-15T01:13:22;8.00;99.90
24226;DHT22;51462;51.422;5.514;2023-04-15T01:15:48;8.00;99.90
24226;DHT22;51462;51.422;5.514;2023-04-15T01:18:14;8.00;99.90
24226;DHT22;51462;51.422;5.514;2023-04-15T01:20:40;8.00;99.90
24226;DHT22;51462;51.422;5.514;2023-04-15T01:23:06;7.90;99.90
24226;DHT22;51462;51.422;5.514;2023-04-15T01:25:32;7.90;99.90
24226;DHT22;51462;51.422;5.514;2023-04-15T01:27:58;8.00;99.90
24226;DHT22;51462;51.422;5.514;2023-04-15T01:30:24;8.00;99.90
24226;DHT22;51462;51.422;5.514;2023-04-15T01:32:51;7.90;99.90
24226;DHT22;51462;51.422;5.514;2023-04-15T01:35:17;7.90;99.90
24226;DHT22;51462;51.422;5.514;2023-04-15T01:37:43;7.80;99.90
24226;DHT22;51462;51.422;5.514;2023-04-15T01:40:09;7.80;99.90
24226;DHT22;51462;51.422;5.514;2023-04-15T01:42:35;7.80;99.90
24226;DHT22;51462;51.422;5.514;2023-04-15T01:45:01;7.80;99.90
24226;DHT22;51462;51.422;5.514;2023-04-15T01:47:27;7.80;99.90
24226;DHT22;51462;51.422;5.514;2023-04-15T01:49:52;7.80;99.90
24226;DHT22;51462;51.422;5.514;2023-04-15T01:52:18;7.70;99.90
24226;DHT22;51462;51.422;5.514;2023-04-15T01:54:44;7.70;99.90
24226;DHT22;51462;51.422;5.514;2023-04-15T01:57:10;7.60;99.90
24226;DHT22;51462;51.422;5.514;2023-04-15T01:59:35;7.60;99.90
24226;DHT22;51462;51.422;5.514;2023-04-15T02:02:01;7.60;99.90
24226;DHT22;51462;51.422;5.514;2023-04-15T02:04:27;7.50;99.90
24226;DHT22;51462;51.422;5.514;2023-04-15T02:06:53;7.50;99.90
24226;DHT22;51462;51.422;5.514;2023-04-15T02:09:18;7.50;99.90
24226;DHT22;51462;51.422;5.514;2023-04-15T02:11:44;7.50;99.90
24226;DHT22;51462;51.422;5.514;2023-04-15T02:14:10;7.40;99.90
24226;DHT22;51462;51.422;5.514;2023-04-15T02:16:35;7.40;99.90
24226;DHT22;51462;51.422;5.514;2023-04-15T02:19:01;7.30;99.90
24226;DHT22;51462;51.422;5.514;2023-04-15T02:21:27;7.30;99.90
24226;DHT22;51462;51.422;5.514;2023-04-15T02:23:53;7.30;99.90
24226;DHT22;51462;51.422;5.514;2023-04-15T02:26:19;7.30;99.90
24226;DHT22;51462;51.422;5.514;2023-04-15T02:28:46;7.20;99.90
24226;DHT22;51462;51.422;5.514;2023-04-15T02:31:11;7.20;99.90
24226;DHT22;51462;51.422;5.514;2023-04-15T02:33:37;7.20;99.90
24226;DHT22;51462;51.422;5.514;2023-04-15T02:36:03;7.20;99.90
24226;DHT22;51462;51.422;5.514;2023-04-15T02:38:28;7.30;99.90
24226;DHT22;51462;51.422;5.514;2023-04-15T02:40:56;7.20;99.90
24226;DHT22;51462;51.422;5.514;2023-04-15T02:43:22;7.20;99.90
24226;DHT22;51462;51.422;5.514;2023-04-15T02:45:47;7.10;99.90
24226;DHT22;51462;51.422;5.514;2023-04-15T02:48:13;7.10;99.90
24226;DHT22;51462;51.422;5.514;2023-04-15T02:50:39;7.10;99.90
24226;DHT22;51462;51.422;5.514;2023-04-15T02:53:05;7.10;99.90
24226;DHT22;51462;51.422;5.514;2023-04-15T02:55:31;7.10;99.90
24226;DHT22;51462;51.422;5.514;2023-04-15T02:57:57;7.00;99.90
24226;DHT22;51462;51.422;5.514;2023-04-15T03:00:26;7.00;99.90
24226;DHT22;51462;51.422;5.514;2023-04-15T03:02:57;6.90;99.90
24226;DHT22;51462;51.422;5.514;2023-04-15T03:05:24;6.80;99.90
24226;DHT22;51462;51.422;5.514;2023-04-15T03:07:50;6.80;99.90
24226;DHT22;51462;51.422;5.514;2023-04-15T03:10:16;6.90;99.90
24226;DHT22;51462;51.422;5.514;2023-04-15T03:12:42;6.80;99.90
24226;DHT22;51462;51.422;5.514;2023-04-15T03:15:08;6.80;99.90
24226;DHT22;51462;51.422;5.514;2023-04-15T03:17:34;6.70;99.90
24226;DHT22;51462;51.422;5.514;2023-04-15T03:20:01;6.70;99.90
24226;DHT22;51462;51.422;5.514;2023-04-15T03:22:29;6.70;99.90
24226;DHT22;51462;51.422;5.514;2023-04-15T03:24:55;6.70;99.90
24226;DHT22;51462;51.422;5.514;2023-04-15T03:27:21;6.70;99.90
24226;DHT22;51462;51.422;5.514;2023-04-15T03:29:46;6.70;99.90
24226;DHT22;51462;51.422;5.514;2023-04-15T03:32:12;6.70;99.90
24226;DHT22;51462;51.422;5.514;2023-04-15T03:34:39;6.60;99.90
24226;DHT22;51462;51.422;5.514;2023-04-15T03:37:05;6.50;99.90
24226;DHT22;51462;51.422;5.514;2023-04-15T03:39:31;6.50;99.90
24226;DHT22;51462;51.422;5.514;2023-04-15T03:41:57;6.50;99.90
24226;DHT22;51462;51.422;5.514;2023-04-15T03:44:25;6.50;99.90
24226;DHT22;51462;51.422;5.514;2023-04-15T03:46:50;6.50;99.90
24226;DHT22;51462;51.422;5.514;2023-04-15T03:49:16;6.50;99.90
24226;DHT22;51462;51.422;5.514;2023-04-15T03:51:43;6.60;99.90
24226;DHT22;51462;51.422;5.514;2023-04-15T03:54:09;6.50;99.90
24226;DHT22;51462;51.422;5.514;2023-04-15T03:56:34;6.40;99.90
24226;DHT22;51462;51.422;5.514;2023-04-15T03:59:00;6.40;99.90
24226;DHT22;51462;51.422;5.514;2023-04-15T04:01:25;6.40;99.90
24226;DHT22;51462;51.422;5.514;2023-04-15T04:03:51;6.40;99.90
24226;DHT22;51462;51.422;5.514;2023-04-15T04:06:16;6.50;99.90
24226;DHT22;51462;51.422;5.514;2023-04-15T04:08:42;6.60;99.90
24226;DHT22;51462;51.422;5.514;2023-04-15T04:11:08;6.60;99.90
24226;DHT22;51462;51.422;5.514;2023-04-15T04:13:33;6.50;99.90
24226;DHT22;51462;51.422;5.514;2023-04-15T04:15:59;6.70;99.90
24226;DHT22;51462;51.422;5.514;2023-04-15T04:18:25;6.70;99.90
24226;DHT22;51462;51.422;5.514;2023-04-15T04:20:50;6.70;99.90
24226;DHT22;51462;51.422;5.514;2023-04-15T04:23:16;7.00;99.90
24226;DHT22;51462;51.422;5.514;2023-04-15T04:25:41;6.90;99.90
24226;DHT22;51462;51.422;5.514;2023-04-15T04:28:07;7.30;99.90
24226;DHT22;51462;51.422;5.514;2023-04-15T04:30:34;7.20;99.90
24226;DHT22;51462;51.422;5.514;2023-04-15T04:33:00;7.00;99.90
24226;DHT22;51462;51.422;5.514;2023-04-15T04:35:25;7.20;99.90
24226;DHT22;51462;51.422;5.514;2023-04-15T04:37:51;7.30;99.90
24226;DHT22;51462;51.422;5.514;2023-04-15T04:40:18;7.30;99.90
24226;DHT22;51462;51.422;5.514;2023-04-15T04:42:43;7.00;99.90
24226;DHT22;51462;51.422;5.514;2023-04-15T04:45:09;6.90;99.90
24226;DHT22;51462;51.422;5.514;2023-04-15T04:47:35;6.80;99.90
24226;DHT22;51462;51.422;5.514;2023-04-15T04:50:00;7.00;99.90
24226;DHT22;51462;51.422;5.514;2023-04-15T04:52:26;6.90;99.90
24226;DHT22;51462;51.422;5.514;2023-04-15T04:54:51;6.90;99.90
24226;DHT22;51462;51.422;5.514;2023-04-15T04:57:17;6.90;99.90
24226;DHT22;51462;51.422;5.514;2023-04-15T04:59:43;6.80;99.90
24226;DHT22;51462;51.422;5.514;2023-04-15T05:02:08;7.00;99.90
24226;DHT22;51462;51.422;5.514;2023-04-15T05:04:34;6.90;99.90
24226;DHT22;51462;51.422;5.514;2023-04-15T05:07:01;6.70;99.90
24226;DHT22;51462;51.422;5.514;2023-04-15T05:09:26;6.70;99.90
24226;DHT22;51462;51.422;5.514;2023-04-15T05:11:52;7.00;99.90
24226;DHT22;51462;51.422;5.514;2023-04-15T05:14:18;7.00;99.90
24226;DHT22;51462;51.422;5.514;2023-04-15T05:16:43;7.00;99.90
24226;DHT22;51462;51.422;5.514;2023-04-15T05:19:09;6.80;99.90
24226;DHT22;51462;51.422;5.514;2023-04-15T05:21:34;6.90;99.90
24226;DHT22;51462;51.422;5.514;2023-04-15T05:24:00;6.80;99.90
24226;DHT22;51462;51.422;5.514;2023-04-15T05:26:26;6.70;99.90
24226;DHT22;51462;51.422;5.514;2023-04-15T05:28:51;6.60;99.90
24226;DHT22;51462;51.422;5.514;2023-04-15T05:31:17;6.50;99.90
24226;DHT22;51462;51.422;5.514;2023-04-15T05:33:43;6.60;99.90
24226;DHT22;51462;51.422;5.514;2023-04-15T05:36:08;6.50;99.90
24226;DHT22;51462;51.422;5.514;2023-04-15T05:38:34;6.50;99.90
24226;DHT22;51462;51.422;5.514;2023-04-15T05:41:00;6.40;99.90
24226;DHT22;51462;51.422;5.514;2023-04-15T05:43:25;6.60;99.90
24226;DHT22;51462;51.422;5.514;2023-04-15T05:45:51;6.50;99.90
24226;DHT22;51462;51.422;5.514;2023-04-15T05:48:16;6.40;99.90
24226;DHT22;51462;51.422;5.514;2023-04-15T05:50:42;6.40;99.90
24226;DHT22;51462;51.422;5.514;2023-04-15T05:53:08;6.40;99.90
24226;DHT22;51462;51.422;5.514;2023-04-15T05:55:33;6.40;99.90
24226;DHT22;51462;51.422;5.514;2023-04-15T05:57:59;6.40;99.90
24226;DHT22;51462;51.422;5.514;2023-04-15T06:00:24;6.40;99.90
24226;DHT22;51462;51.422;5.514;2023-04-15T06:02:50;6.40;99.90
24226;DHT22;51462;51.422;5.514;2023-04-15T06:05:16;6.40;99.90
24226;DHT22;51462;51.422;5.514;2023-04-15T06:07:42;6.40;99.90
24226;DHT22;51462;51.422;5.514;2023-04-15T06:10:08;6.40;99.90
24226;DHT22;51462;51.422;5.514;2023-04-15T06:12:34;6.50;99.90
24226;DHT22;51462;51.422;5.514;2023-04-15T06:15:00;6.60;99.90
24226;DHT22;51462;51.422;5.514;2023-04-15T06:17:26;6.70;99.90
24226;DHT22;51462;51.422;5.514;2023-04-15T06:19:52;6.70;99.90
24226;DHT22;51462;51.422;5.514;2023-04-15T06:22:21;6.70;99.90
24226;DHT22;51462;51.422;5.514;2023-04-15T06:24:49;6.80;99.90
24226;DHT22;51462;51.422;5.514;2023-04-15T06:27:16;6.90;99.90
24226;DHT22;51462;51.422;5.514;2023-04-15T06:29:41;7.00;99.90
24226;DHT22;51462;51.422;5.514;2023-04-15T06:32:07;7.10;99.90
24226;DHT22;51462;51.422;5.514;2023-04-15T06:34:33;7.50;99.90
24226;DHT22;51462;51.422;5.514;2023-04-15T06:36:58;7.60;99.90
24226;DHT22;51462;51.422;5.514;2023-04-15T06:39:25;7.80;99.90
24226;DHT22;51462;51.422;5.514;2023-04-15T06:41:51;8.20;99.90
24226;DHT22;51462;51.422;5.514;2023-04-15T06:44:17;8.10;99.90
24226;DHT22;51462;51.422;5.514;2023-04-15T06:46:43;8.20;99.90
24226;DHT22;51462;51.422;5.514;2023-04-15T06:49:09;8.40;99.90
24226;DHT22;51462;51.422;5.514;2023-04-15T06:51:35;8.60;99.90
24226;DHT22;51462;51.422;5.514;2023-04-15T06:54:01;8.60;99.90
24226;DHT22;51462;51.422;5.514;2023-04-15T06:56:30;8.50;99.90
24226;DHT22;51462;51.422;5.514;2023-04-15T06:58:56;8.40;99.90
24226;DHT22;51462;51.422;5.514;2023-04-15T07:01:21;8.90;99.90
24226;DHT22;51462;51.422;5.514;2023-04-15T07:03:47;9.10;99.90
24226;DHT22;51462;51.422;5.514;2023-04-15T07:06:13;9.20;99.90
24226;DHT22;51462;51.422;5.514;2023-04-15T07:08:38;9.40;99.90
24226;DHT22;51462;51.422;5.514;2023-04-15T07:11:04;9.20;99.90
24226;DHT22;51462;51.422;5.514;2023-04-15T07:13:31;9.30;99.90
24226;DHT22;51462;51.422;5.514;2023-04-15T07:15:56;9.60;99.90
24226;DHT22;51462;51.422;5.514;2023-04-15T07:18:22;9.60;99.90
24226;DHT22;51462;51.422;5.514;2023-04-15T07:20:48;9.60;99.90
24226;DHT22;51462;51.422;5.514;2023-04-15T07:23:13;9.40;99.90
24226;DHT22;51462;51.422;5.514;2023-04-15T07:25:39;9.20;99.90
24226;DHT22;51462;51.422;5.514;2023-04-15T07:28:04;9.30;99.90
24226;DHT22;51462;51.422;5.514;2023-04-15T07:30:30;9.50;99.90
24226;DHT22;51462;51.422;5.514;2023-04-15T07:32:56;9.60;99.90
24226;DHT22;51462;51.422;5.514;2023-04-15T07:35:23;9.90;99.90
24226;DHT22;51462;51.422;5.514;2023-04-15T07:37:49;9.90;99.90
24226;DHT22;51462;51.422;5.514;2023-04-15T07:40:15;10.20;99.90
24226;DHT22;51462;51.422;5.514;2023-04-15T07:42:41;10.30;99.90
24226;DHT22;51462;51.422;5.514;2023-04-15T07:45:07;10.30;99.90
24226;DHT22;51462;51.422;5.514;2023-04-15T07:47:33;10.10;99.90
24226;DHT22;51462;51.422;5.514;2023-04-15T07:49:59;10.20;99.90
24226;DHT22;51462;51.422;5.514;2023-04-15T07:52:24;10.40;99.90
24226;DHT22;51462;51.422;5.514;2023-04-15T07:54:50;10.50;99.90
24226;DHT22;51462;51.422;5.514;2023-04-15T07:57:16;10.40;99.90
24226;DHT22;51462;51.422;5.514;2023-04-15T07:59:42;10.30;99.90
24226;DHT22;51462;51.422;5.514;2023-04-15T08:02:09;10.40;99.90
24226;DHT22;51462;51.422;5.514;2023-04-15T08:04:35;10.60;99.90
24226;DHT22;51462;51.422;5.514;2023-04-15T08:07:00;10.60;99.90
24226;DHT22;51462;51.422;5.514;2023-04-15T08:09:26;10.60;99.90
24226;DHT22;51462;51.422;5.514;2023-04-15T08:11:52;10.80;99.90
24226;DHT22;51462;51.422;5.514;2023-04-15T08:14:17;10.90;99.90
24226;DHT22;51462;51.422;5.514;2023-04-15T08:16:43;10.90;99.90
24226;DHT22;51462;51.422;5.514;2023-04-15T08:19:09;10.90;99.90
24226;DHT22;51462;51.422;5.514;2023-04-15T08:21:35;10.90;99.90
24226;DHT22;51462;51.422;5.514;2023-04-15T08:24:01;11.00;99.90
24226;DHT22;51462;51.422;5.514;2023-04-15T08:26:27;11.00;99.90
24226;DHT22;51462;51.422;5.514;2023-04-15T08:28:53;11.00;99.90
24226;DHT22;51462;51.422;5.514;2023-04-15T08:31:18;11.10;99.90
24226;DHT22;51462;51.422;5.514;2023-04-15T08:33:44;11.10;99.90
24226;DHT22;51462;51.422;5.514;2023-04-15T08:36:10;11.30;99.90
24226;DHT22;51462;51.422;5.514;2023-04-15T08:38:36;11.30;99.90
24226;DHT22;51462;51.422;5.514;2023-04-15T08:41:20;11.40;99.90
24226;DHT22;51462;51.422;5.514;2023-04-15T08:44:00;11.50;99.90
24226;DHT22;51462;51.422;5.514;2023-04-15T08:46:26;11.50;99.90
24226;DHT22;51462;51.422;5.514;2023-04-15T08:48:55;11.60;99.90
24226;DHT22;51462;51.422;5.514;2023-04-15T08:51:21;11.50;99.90
24226;DHT22;51462;51.422;5.514;2023-04-15T08:53:46;11.50;99.90
24226;DHT22;51462;51.422;5.514;2023-04-15T08:56:14;11.70;99.90
24226;DHT22;51462;51.422;5.514;2023-04-15T08:58:40;11.70;99.90
24226;DHT22;51462;51.422;5.514;2023-04-15T09:01:06;11.70;99.90
24226;DHT22;51462;51.422;5.514;2023-04-15T09:03:32;11.70;99.90
24226;DHT22;51462;51.422;5.514;2023-04-15T09:05:59;11.70;99.90
24226;DHT22;51462;51.422;5.514;2023-04-15T09:08:25;11.80;99.90
24226;DHT22;51462;51.422;5.514;2023-04-15T09:10:50;11.80;99.90
24226;DHT22;51462;51.422;5.514;2023-04-15T09:13:17;11.70;99.90
24226;DHT22;51462;51.422;5.514;2023-04-15T09:15:44;11.80;99.90
24226;DHT22;51462;51.422;5.514;2023-04-15T09:18:11;11.80;99.90
24226;DHT22;51462;51.422;5.514;2023-04-15T09:20:39;11.70;99.90
24226;DHT22;51462;51.422;5.514;2023-04-15T09:23:13;11.80;99.90
24226;DHT22;51462;51.422;5.514;2023-04-15T09:25:40;11.90;99.90
24226;DHT22;51462;51.422;5.514;2023-04-15T09:28:09;11.90;99.90
24226;DHT22;51462;51.422;5.514;2023-04-15T09:30:35;11.90;99.90
24226;DHT22;51462;51.422;5.514;2023-04-15T09:33:02;12.00;99.90
24226;DHT22;51462;51.422;5.514;2023-04-15T09:35:29;11.90;99.90
24226;DHT22;51462;51.422;5.514;2023-04-15T09:38:05;11.90;99.90
24226;DHT22;51462;51.422;5.514;2023-04-15T09:40:36;12.00;99.90
24226;DHT22;51462;51.422;5.514;2023-04-15T09:43:03;12.10;99.90
24226;DHT22;51462;51.422;5.514;2023-04-15T09:45:30;12.10;99.90
24226;DHT22;51462;51.422;5.514;2023-04-15T09:48:13;12.10;99.90
24226;DHT22;51462;51.422;5.514;2023-04-15T09:50:41;12.20;99.90
24226;DHT22;51462;51.422;5.514;2023-04-15T09:53:09;12.20;99.90
24226;DHT22;51462;51.422;5.514;2023-04-15T09:55:35;12.30;99.90
24226;DHT22;51462;51.422;5.514;2023-04-15T09:58:00;12.40;99.90
24226;DHT22;51462;51.422;5.514;2023-04-15T10:00:27;12.40;99.90
24226;DHT22;51462;51.422;5.514;2023-04-15T10:02:54;12.30;99.90
24226;DHT22;51462;51.422;5.514;2023-04-15T10:05:19;12.40;99.90
24226;DHT22;51462;51.422;5.514;2023-04-15T10:07:46;12.60;99.90
24226;DHT22;51462;51.422;5.514;2023-04-15T10:10:13;12.60;99.90
24226;DHT22;51462;51.422;5.514;2023-04-15T10:12:40;12.60;99.90
24226;DHT22;51462;51.422;5.514;2023-04-15T10:15:13;12.60;99.90
24226;DHT22;51462;51.422;5.514;2023-04-15T10:17:43;12.60;99.90
24226;DHT22;51462;51.422;5.514;2023-04-15T10:20:09;12.70;99.90
24226;DHT22;51462;51.422;5.514;2023-04-15T10:22:37;12.80;99.90
24226;DHT22;51462;51.422;5.514;2023-04-15T10:25:03;12.80;99.90
24226;DHT22;51462;51.422;5.514;2023-04-15T10:27:30;13.00;99.90
24226;DHT22;51462;51.422;5.514;2023-04-15T10:29:56;13.00;99.90
24226;DHT22;51462;51.422;5.514;2023-04-15T10:32:24;13.10;99.90
24226;DHT22;51462;51.422;5.514;2023-04-15T10:34:51;13.00;99.90
24226;DHT22;51462;51.422;5.514;2023-04-15T10:37:22;13.10;99.90
24226;DHT22;51462;51.422;5.514;2023-04-15T10:39:57;13.30;99.90
24226;DHT22;51462;51.422;5.514;2023-04-15T10:42:23;13.30;99.90
24226;DHT22;51462;51.422;5.514;2023-04-15T10:44:49;13.50;99.90
24226;DHT22;51462;51.422;5.514;2023-04-15T10:47:19;13.50;99.90
24226;DHT22;51462;51.422;5.514;2023-04-15T10:49:57;13.40;99.90
24226;DHT22;51462;51.422;5.514;2023-04-15T10:52:25;13.60;99.90
24226;DHT22;51462;51.422;5.514;2023-04-15T10:55:22;13.60;99.90
24226;DHT22;51462;51.422;5.514;2023-04-15T10:57:53;13.60;99.90
24226;DHT22;51462;51.422;5.514;2023-04-15T11:00:19;13.60;99.90
24226;DHT22;51462;51.422;5.514;2023-04-15T11:03:06;13.70;99.90
24226;DHT22;51462;51.422;5.514;2023-04-15T11:08:07;13.80;99.90
24226;DHT22;51462;51.422;5.514;2023-04-15T11:13:03;13.80;99.90
24226;DHT22;51462;51.422;5.514;2023-04-15T11:15:30;13.90;99.90
24226;DHT22;51462;51.422;5.514;2023-04-15T11:20:44;14.10;99.90
24226;DHT22;51462;51.422;5.514;2023-04-15T11:23:10;14.10;99.90
24226;DHT22;51462;51.422;5.514;2023-04-15T11:25:36;14.40;99.90
24226;DHT22;51462;51.422;5.514;2023-04-15T11:28:02;14.60;99.90
24226;DHT22;51462;51.422;5.514;2023-04-15T11:30:30;14.60;99.90
24226;DHT22;51462;51.422;5.514;2023-04-15T11:32:59;14.60;99.90
24226;DHT22;51462;51.422;5.514;2023-04-15T11:35:25;14.80;99.90
24226;DHT22;51462;51.422;5.514;2023-04-15T11:37:50;14.60;99.90
24226;DHT22;51462;51.422;5.514;2023-04-15T11:40:21;14.70;99.90
24226;DHT22;51462;51.422;5.514;2023-04-15T11:43:16;14.60;99.90
24226;DHT22;51462;51.422;5.514;2023-04-15T11:45:58;14.80;99.90
24226;DHT22;51462;51.422;5.514;2023-04-15T11:48:26;14.90;99.90
24226;DHT22;51462;51.422;5.514;2023-04-15T11:50:54;14.60;99.90
24226;DHT22;51462;51.422;5.514;2023-04-15T11:53:20;14.90;99.90
24226;DHT22;51462;51.422;5.514;2023-04-15T11:55:50;14.90;99.90
24226;DHT22;51462;51.422;5.514;2023-04-15T11:58:22;14.90;99.90
24226;DHT22;51462;51.422;5.514;2023-04-15T12:06:05;15.10;99.90
24226;DHT22;51462;51.422;5.514;2023-04-15T12:11:19;15.00;99.90
24226;DHT22;51462;51.422;5.514;2023-04-15T12:13:47;15.20;99.90
24226;DHT22;51462;51.422;5.514;2023-04-15T12:16:17;15.40;99.90
24226;DHT22;51462;51.422;5.514;2023-04-15T12:18:50;15.30;99.90
24226;DHT22;51462;51.422;5.514;2023-04-15T12:21:20;15.70;99.90
24226;DHT22;51462;51.422;5.514;2023-04-15T12:23:49;15.40;99.90
24226;DHT22;51462;51.422;5.514;2023-04-15T12:26:16;15.50;99.90
24226;DHT22;51462;51.422;5.514;2023-04-15T12:28:42;15.40;99.90
24226;DHT22;51462;51.422;5.514;2023-04-15T12:31:08;15.60;99.90
24226;DHT22;51462;51.422;5.514;2023-04-15T12:33:35;15.40;99.90
24226;DHT22;51462;51.422;5.514;2023-04-15T12:36:00;15.50;99.90
24226;DHT22;51462;51.422;5.514;2023-04-15T12:38:26;15.60;99.90
24226;DHT22;51462;51.422;5.514;2023-04-15T12:40:51;15.90;99.90
24226;DHT22;51462;51.422;5.514;2023-04-15T12:43:17;16.30;99.90
24226;DHT22;51462;51.422;5.514;2023-04-15T12:45:43;16.30;99.90
24226;DHT22;51462;51.422;5.514;2023-04-15T12:48:08;16.40;99.90
24226;DHT22;51462;51.422;5.514;2023-04-15T12:50:34;16.60;99.90
24226;DHT22;51462;51.422;5.514;2023-04-15T12:53:01;16.60;99.90
24226;DHT22;51462;51.422;5.514;2023-04-15T12:55:26;16.60;99.90
24226;DHT22;51462;51.422;5.514;2023-04-15T12:57:52;16.50;99.90
24226;DHT22;51462;51.422;5.514;2023-04-15T13:00:18;16.50;99.90
24226;DHT22;51462;51.422;5.514;2023-04-15T13:02:43;16.80;99.90
24226;DHT22;51462;51.422;5.514;2023-04-15T13:05:09;16.60;99.90
24226;DHT22;51462;51.422;5.514;2023-04-15T13:07:34;16.50;99.90
24226;DHT22;51462;51.422;5.514;2023-04-15T13:10:00;16.50;99.90
24226;DHT22;51462;51.422;5.514;2023-04-15T13:12:26;16.60;99.90
24226;DHT22;51462;51.422;5.514;2023-04-15T13:14:52;16.60;99.90
24226;DHT22;51462;51.422;5.514;2023-04-15T13:17:17;17.00;99.90
24226;DHT22;51462;51.422;5.514;2023-04-15T13:19:44;17.20;99.90
24226;DHT22;51462;51.422;5.514;2023-04-15T13:22:10;16.80;99.90
24226;DHT22;51462;51.422;5.514;2023-04-15T13:24:37;16.60;99.90
24226;DHT22;51462;51.422;5.514;2023-04-15T13:27:03;16.50;99.90
24226;DHT22;51462;51.422;5.514;2023-04-15T13:29:29;16.60;99.90
24226;DHT22;51462;51.422;5.514;2023-04-15T13:31:55;16.80;99.90
24226;DHT22;51462;51.422;5.514;2023-04-15T13:34:21;16.80;99.90
24226;DHT22;51462;51.422;5.514;2023-04-15T13:36:46;16.70;99.90
24226;DHT22;51462;51.422;5.514;2023-04-15T13:39:12;16.60;99.90
24226;DHT22;51462;51.422;5.514;2023-04-15T13:41:38;16.50;99.90
24226;DHT22;51462;51.422;5.514;2023-04-15T13:44:04;16.70;99.90
24226;DHT22;51462;51.422;5.514;2023-04-15T13:46:30;16.40;99.90
24226;DHT22;51462;51.422;5.514;2023-04-15T13:48:56;16.60;99.90
24226;DHT22;51462;51.422;5.514;2023-04-15T13:51:21;17.40;99.90
24226;DHT22;51462;51.422;5.514;2023-04-15T13:53:47;16.80;99.90
24226;DHT22;51462;51.422;5.514;2023-04-15T13:56:12;15.80;99.90
24226;DHT22;51462;51.422;5.514;2023-04-15T13:58:39;16.50;99.90
24226;DHT22;51462;51.422;5.514;2023-04-15T14:01:05;17.40;99.90
24226;DHT22;51462;51.422;5.514;2023-04-15T14:03:32;17.50;99.90
24226;DHT22;51462;51.422;5.514;2023-04-15T14:05:58;17.30;99.90
24226;DHT22;51462;51.422;5.514;2023-04-15T14:08:24;18.10;99.90
24226;DHT22;51462;51.422;5.514;2023-04-15T14:10:50;18.50;99.90
24226;DHT22;51462;51.422;5.514;2023-04-15T14:13:15;19.30;99.90
24226;DHT22;51462;51.422;5.514;2023-04-15T14:15:41;18.30;99.90
24226;DHT22;51462;51.422;5.514;2023-04-15T14:18:06;17.70;99.90
24226;DHT22;51462;51.422;5.514;2023-04-15T14:20:32;17.60;99.90
24226;DHT22;51462;51.422;5.514;2023-04-15T14:22:58;18.30;99.90
24226;DHT22;51462;51.422;5.514;2023-04-15T14:25:23;18.30;99.90
24226;DHT22;51462;51.422;5.514;2023-04-15T14:27:49;18.00;99.90
24226;DHT22;51462;51.422;5.514;2023-04-15T14:30:14;19.30;99.90
24226;DHT22;51462;51.422;5.514;2023-04-15T14:32:40;20.10;99.90
24226;DHT22;51462;51.422;5.514;2023-04-15T14:35:06;20.00;99.90
24226;DHT22;51462;51.422;5.514;2023-04-15T14:37:32;19.50;99.90
24226;DHT22;51462;51.422;5.514;2023-04-15T14:39:57;18.80;99.90
24226;DHT22;51462;51.422;5.514;2023-04-15T14:42:23;19.50;99.90
24226;DHT22;51462;51.422;5.514;2023-04-15T14:44:48;19.60;99.90
24226;DHT22;51462;51.422;5.514;2023-04-15T14:47:14;19.60;99.90
24226;DHT22;51462;51.422;5.514;2023-04-15T14:49:40;19.30;99.90
24226;DHT22;51462;51.422;5.514;2023-04-15T14:52:06;19.10;99.90
24226;DHT22;51462;51.422;5.514;2023-04-15T14:54:31;18.20;99.90
24226;DHT22;51462;51.422;5.514;2023-04-15T14:56:57;17.80;99.90
24226;DHT22;51462;51.422;5.514;2023-04-15T14:59:22;17.90;99.90
24226;DHT22;51462;51.422;5.514;2023-04-15T15:01:48;17.80;99.90
24226;DHT22;51462;51.422;5.514;2023-04-15T15:04:14;17.50;99.90
24226;DHT22;51462;51.422;5.514;2023-04-15T15:06:40;17.40;99.90
24226;DHT22;51462;51.422;5.514;2023-04-15T15:09:06;17.60;99.90
24226;DHT22;51462;51.422;5.514;2023-04-15T15:11:32;17.50;99.90
24226;DHT22;51462;51.422;5.514;2023-04-15T15:13:57;17.40;99.90
24226;DHT22;51462;51.422;5.514;2023-04-15T15:16:23;17.50;99.90
24226;DHT22;51462;51.422;5.514;2023-04-15T15:18:49;17.70;99.90
24226;DHT22;51462;51.422;5.514;2023-04-15T15:21:16;17.20;99.90
24226;DHT22;51462;51.422;5.514;2023-04-15T15:23:41;17.10;99.90
24226;DHT22;51462;51.422;5.514;2023-04-15T15:26:07;17.40;99.90
24226;DHT22;51462;51.422;5.514;2023-04-15T15:28:33;17.50;99.90
24226;DHT22;51462;51.422;5.514;2023-04-15T15:30:59;17.50;99.90
24226;DHT22;51462;51.422;5.514;2023-04-15T15:33:25;17.30;99.90
24226;DHT22;51462;51.422;5.514;2023-04-15T15:35:50;17.30;99.90
24226;DHT22;51462;51.422;5.514;2023-04-15T15:38:16;17.00;99.90
24226;DHT22;51462;51.422;5.514;2023-04-15T15:40:42;16.80;99.90
24226;DHT22;51462;51.422;5.514;2023-04-15T15:43:07;16.90;99.90
24226;DHT22;51462;51.422;5.514;2023-04-15T15:45:34;16.80;99.90
24226;DHT22;51462;51.422;5.514;2023-04-15T15:48:00;17.00;99.90